createdAt,value
2023-05-14T00:01:39.617Z,27
2023-05-14T00:05:45.734Z,28.6
2023-05-14T00:07:48.809Z,33.2
2023-05-14T00:14:01.124Z,26.8
2023-05-14T00:18:07.343Z,38.6
2023-05-14T00:20:10.300Z,23.1
2023-05-14T00:22:13.393Z,21.2
2023-05-14T00:24:16.424Z,32.3
2023-05-14T00:26:19.513Z,17.4
2023-05-14T00:28:25.699Z,29.4
2023-05-14T00:36:37.993Z,28.6
2023-05-14T00:42:50.315Z,29.6
2023-05-14T00:47:59.531Z,29.6
2023-05-14T00:50:02.558Z,32.1
2023-05-14T00:52:05.655Z,35.1
2023-05-14T00:56:14.894Z,29.3
2023-05-14T00:58:18.026Z,28.1
2023-05-14T01:00:21.216Z,29.8
2023-05-14T01:02:24.149Z,27
2023-05-14T01:14:45.636Z,31
2023-05-14T01:16:48.715Z,18.8
2023-05-14T01:18:51.786Z,25.7
2023-05-14T01:20:54.823Z,35.1
2023-05-14T01:22:57.894Z,21.8
2023-05-14T01:27:08.685Z,22.4
2023-05-14T01:29:11.721Z,26.4
2023-05-14T01:31:14.780Z,32.3
2023-05-14T01:33:17.864Z,33.1
2023-05-14T01:35:20.946Z,31.4
2023-05-14T01:37:23.980Z,27.7
2023-05-14T01:39:30.188Z,37.3
2023-05-14T01:41:33.235Z,42.3
2023-05-14T01:48:08.915Z,29.6
2023-05-14T01:52:18.106Z,23.7
2023-05-14T01:54:21.183Z,21.2
2023-05-14T01:58:27.299Z,34.8
2023-05-14T02:00:30.377Z,25.1
2023-05-14T02:04:36.477Z,33.7
2023-05-14T02:06:42.672Z,24.1
2023-05-14T02:08:45.726Z,32.7
2023-05-14T02:10:48.883Z,31.6
2023-05-14T02:12:52.050Z,37.1
2023-05-14T02:19:01.498Z,31.5
2023-05-14T02:21:07.804Z,24.2
2023-05-14T02:23:10.976Z,27.1
2023-05-14T02:25:14.141Z,23.2
2023-05-14T02:27:17.285Z,32.5
2023-05-14T02:29:20.490Z,24.3
2023-05-14T02:31:23.642Z,27.9
2023-05-14T02:33:26.825Z,48.8
2023-05-14T02:35:33.065Z,31.5
2023-05-14T02:37:36.217Z,23.2
2023-05-14T02:39:39.362Z,25.3
2023-05-14T02:40:42.562Z,30.1
2023-05-14T02:53:04.758Z,32.6
2023-05-14T02:55:07.947Z,25.5
2023-05-14T02:59:14.264Z,46.7
2023-05-14T03:03:23.862Z,35.7
2023-05-14T03:05:26.960Z,24
2023-05-14T03:07:30.093Z,24.4
2023-05-14T03:11:36.409Z,32.5
2023-05-14T03:13:39.548Z,28.1
2023-05-14T03:15:42.719Z,26.8
2023-05-14T03:17:49.131Z,28.3
2023-05-14T03:19:52.244Z,31.3
2023-05-14T03:21:55.402Z,32.7
2023-05-14T03:23:58.543Z,28.7
2023-05-14T03:26:01.724Z,38.8
2023-05-14T03:28:04.872Z,30.2
2023-05-14T03:30:08.049Z,36.6
2023-05-14T03:32:14.384Z,34.4
2023-05-14T03:34:17.527Z,45
2023-05-14T03:37:23.891Z,29.1
2023-05-14T03:39:26.980Z,32.5
2023-05-14T03:41:30.166Z,26.3
2023-05-14T03:45:39.694Z,35.3
2023-05-14T03:47:42.893Z,31.1
2023-05-14T03:57:58.653Z,32
2023-05-14T04:00:05.009Z,37
2023-05-14T04:02:08.243Z,32.1
2023-05-14T04:04:11.504Z,39
2023-05-14T04:06:14.537Z,42.1
2023-05-14T04:08:17.703Z,37.7
2023-05-14T04:10:20.854Z,38.8
2023-05-14T04:18:36.653Z,47.8
2023-05-14T04:20:39.776Z,46.3
2023-05-14T04:22:42.906Z,39.1
2023-05-14T04:30:58.736Z,47
2023-05-14T04:33:01.952Z,47
2023-05-14T04:34:05.069Z,35.2
2023-05-14T04:42:20.825Z,41
2023-05-14T04:44:23.963Z,46.3
2023-05-14T04:46:27.230Z,41.7
2023-05-14T04:48:30.275Z,56.6
2023-05-14T04:50:33.452Z,35.1
2023-05-14T04:52:36.574Z,46.3
2023-05-14T04:56:46.075Z,26.7
2023-05-14T04:58:49.228Z,30.2
2023-05-14T05:02:55.590Z,19.6
2023-05-14T05:04:58.709Z,29.9
2023-05-14T05:09:05.022Z,28.4
2023-05-14T05:11:11.378Z,26.2
2023-05-14T05:13:14.533Z,29.9
2023-05-14T05:17:20.916Z,26.7
2023-05-14T05:25:36.390Z,21.9
2023-05-14T05:27:39.442Z,20.4
2023-05-14T05:29:42.521Z,22.5
2023-05-14T05:32:11.997Z,17
2023-05-14T05:34:15.039Z,21.3
2023-05-14T05:36:18.102Z,19.9
2023-05-14T05:38:24.257Z,30.3
2023-05-14T05:40:27.304Z,17.3
2023-05-14T05:42:30.354Z,27
2023-05-14T05:44:33.418Z,22.7
2023-05-14T05:46:36.506Z,30.3
2023-05-14T05:50:42.576Z,14.3
2023-05-14T05:52:48.735Z,15.3
2023-05-14T05:54:51.776Z,18.2
2023-05-14T05:56:54.840Z,30.4
2023-05-14T05:58:57.893Z,15.4
2023-05-14T06:01:00.963Z,31.8
2023-05-14T06:07:13.290Z,24.3
2023-05-14T06:09:16.352Z,14.7
2023-05-14T06:11:19.398Z,13.9
2023-05-14T06:13:22.443Z,17.8
2023-05-14T06:15:25.508Z,13.4
2023-05-14T06:17:28.595Z,10.9
2023-05-14T06:19:31.589Z,27.7
2023-05-14T06:21:37.775Z,15.2
2023-05-14T06:26:46.923Z,20
2023-05-14T06:28:49.979Z,7.9
2023-05-14T06:30:53.003Z,12.7
2023-05-14T06:32:56.117Z,23
2023-05-14T06:37:05.239Z,13.2
2023-05-14T06:39:08.269Z,16.6
2023-05-14T06:41:11.347Z,18
2023-05-14T06:43:14.365Z,18.2
2023-05-14T06:45:17.414Z,14.4
2023-05-14T06:47:20.469Z,15.3
2023-05-14T06:49:26.550Z,13.6
2023-05-14T06:51:29.591Z,17.9
2023-05-14T06:53:32.641Z,13.1
2023-05-14T06:55:35.668Z,13.5
2023-05-14T07:01:44.799Z,11.7
2023-05-14T07:03:51.031Z,17.1
2023-05-14T07:05:53.958Z,22.9
2023-05-14T07:07:56.978Z,19.6
2023-05-14T07:12:03.046Z,13.1
2023-05-14T07:14:06.087Z,9.9
2023-05-14T07:16:09.133Z,18.3
2023-05-14T07:18:16.858Z,8.9
2023-05-14T07:20:19.831Z,20.2
2023-05-14T07:22:22.835Z,26.4
2023-05-14T07:23:25.926Z,9.7
2023-05-14T07:25:28.972Z,13.8
2023-05-14T07:27:31.968Z,18
2023-05-14T07:29:35.060Z,21.7
2023-05-14T07:31:41.189Z,19
2023-05-14T07:33:44.135Z,13.5
2023-05-14T07:35:47.171Z,9.4
2023-05-14T07:37:50.195Z,10.7
2023-05-14T07:39:53.233Z,13.8
2023-05-14T07:41:56.275Z,18.3
2023-05-14T07:43:59.266Z,11.2
2023-05-14T07:48:08.509Z,13.5
2023-05-14T07:56:20.434Z,6.7
2023-05-14T07:58:23.427Z,24.9
2023-05-14T08:00:29.569Z,26.8
2023-05-14T08:08:41.520Z,8.8
2023-05-14T08:12:47.468Z,9.1
2023-05-14T08:14:53.567Z,19.3
2023-05-14T08:18:59.570Z,7.9
2023-05-14T08:26:11.419Z,11.1
2023-05-14T08:28:17.506Z,10.5
2023-05-14T08:38:32.185Z,6.9
2023-05-14T08:42:41.167Z,12.4
2023-05-14T08:46:47.007Z,9
2023-05-14T08:48:49.886Z,12.8
2023-05-14T08:50:52.792Z,6.9
2023-05-14T08:54:58.558Z,9.7
2023-05-14T08:57:04.619Z,10.4
2023-05-14T08:59:07.501Z,5.6
2023-05-14T09:03:13.423Z,16.5
2023-05-14T09:07:18.944Z,7.6
2023-05-14T09:11:27.854Z,12.7
2023-05-14T09:13:30.685Z,15.6
2023-05-14T09:15:33.528Z,5.8
2023-05-14T09:18:02.409Z,17
2023-05-14T09:26:16.603Z,5.3
2023-05-14T09:28:19.461Z,8.2
2023-05-14T09:30:22.385Z,14.1
2023-05-14T09:32:25.186Z,20.7
2023-05-14T09:34:27.978Z,11.4
2023-05-14T09:36:30.802Z,18.5
2023-05-14T09:38:36.777Z,7.3
2023-05-14T09:40:39.637Z,7.4
2023-05-14T09:42:42.473Z,7.3
2023-05-14T09:52:59.925Z,5.8
2023-05-14T10:12:31.794Z,6.4
2023-05-14T10:14:34.635Z,10
2023-05-14T10:16:37.548Z,8.6
2023-05-14T10:20:46.246Z,9.8
2023-05-14T10:22:49.100Z,4.7
2023-05-14T10:24:51.922Z,4
2023-05-14T10:26:54.790Z,5.5
2023-05-14T10:28:57.608Z,7.8
2023-05-14T10:31:00.583Z,9.3
2023-05-14T10:35:09.269Z,11.5
2023-05-14T10:37:12.108Z,8.6
2023-05-14T10:39:14.937Z,13.3
2023-05-14T10:41:17.889Z,9.6
2023-05-14T10:43:20.651Z,25.5
2023-05-14T10:45:23.476Z,13.2
2023-05-14T10:47:26.337Z,8.7
2023-05-14T10:49:42.431Z,12.8
2023-05-14T10:51:35.234Z,15.1
2023-05-14T10:53:37.982Z,6.6
2023-05-14T10:55:40.807Z,12.7
2023-05-14T10:57:43.671Z,5.3
2023-05-14T10:59:46.458Z,11.7
2023-05-14T11:01:49.332Z,5.4
2023-05-14T11:03:55.294Z,18.6
2023-05-14T11:05:58.055Z,3.6
2023-05-14T11:08:00.899Z,8.4
2023-05-14T11:09:03.766Z,5.8
2023-05-14T11:11:06.448Z,12.2
2023-05-14T11:13:09.126Z,5.9
2023-05-14T11:15:11.843Z,3.1
2023-05-14T11:17:17.615Z,9.2
2023-05-14T11:23:25.545Z,11.8
2023-05-14T11:25:28.246Z,11.1
2023-05-14T11:27:30.870Z,4.7
2023-05-14T11:29:33.530Z,8.5
2023-05-14T11:31:39.258Z,3
2023-05-14T11:35:44.549Z,10.9
2023-05-14T11:37:47.155Z,4.1
2023-05-14T12:05:30.322Z,11.6
2023-05-14T12:07:32.979Z,12.9
2023-05-14T12:09:35.584Z,9.9
2023-05-14T12:11:38.201Z,3
2023-05-14T12:15:46.528Z,1.4
2023-05-14T12:28:05.206Z,9.6
2023-05-14T12:34:13.021Z,6.6
2023-05-14T12:38:18.189Z,6.8
2023-05-14T12:46:31.602Z,5.8
2023-05-14T13:03:21.321Z,4.3
2023-05-14T13:05:23.992Z,5.3
2023-05-14T13:07:26.431Z,11.9
2023-05-14T13:11:36.219Z,3.1
2023-05-14T13:15:41.374Z,5.2
2023-05-14T13:21:49.191Z,4.9
2023-05-14T13:28:00.133Z,2.2
2023-05-14T13:30:02.747Z,7.2
2023-05-14T13:34:07.977Z,8.2
2023-05-14T13:38:16.284Z,7.9
2023-05-14T13:46:26.864Z,3.3
2023-05-14T13:57:46.210Z,2.6
2023-05-14T13:59:48.989Z,5
2023-05-14T14:01:51.908Z,7.2
2023-05-14T14:03:54.574Z,5.8
2023-05-14T14:06:00.554Z,4.1
2023-05-14T14:08:17.887Z,7
2023-05-14T14:10:06.167Z,9.6
2023-05-14T14:12:09.131Z,7
2023-05-14T14:14:11.859Z,13.2
2023-05-14T14:20:23.580Z,4.3
2023-05-14T14:22:28.948Z,4.9
2023-05-14T14:24:29.298Z,3.2
2023-05-14T14:26:32.151Z,5.4
2023-05-14T14:28:35.030Z,15.3
2023-05-14T14:30:37.936Z,4.9
2023-05-14T14:32:40.846Z,12.5
2023-05-14T14:40:55.442Z,7.3
2023-05-14T14:49:10.121Z,1.9
2023-05-14T14:51:12.980Z,3.2
2023-05-14T14:53:15.856Z,5.6
2023-05-14T14:54:18.860Z,4.3
2023-05-14T14:56:21.737Z,17.4
2023-05-14T14:58:24.642Z,3
2023-05-14T15:00:27.476Z,2.5
2023-05-14T15:06:39.239Z,4.4
2023-05-14T15:08:42.144Z,3.7
2023-05-14T15:12:47.857Z,2.2
2023-05-14T15:14:50.748Z,2.9
2023-05-14T15:16:56.787Z,3.3
2023-05-14T15:19:00.693Z,4.9
2023-05-14T15:21:03.480Z,4.4
2023-05-14T15:23:06.359Z,2
2023-05-14T15:25:09.223Z,4.6
2023-05-14T15:47:48.349Z,2.6
2023-05-14T15:50:54.312Z,54.7
2023-05-14T15:52:57.209Z,32.2
2023-05-14T15:55:00.195Z,6.8
2023-05-14T15:57:03.094Z,27.9
2023-05-14T15:59:09.164Z,8.4
2023-05-14T16:01:12.081Z,10.3
2023-05-14T16:03:15.093Z,17.1
2023-05-14T16:05:18.000Z,9.6
2023-05-14T16:09:23.854Z,9.5
2023-05-14T16:11:26.788Z,20
2023-05-14T16:17:38.832Z,10.9
2023-05-14T16:23:47.661Z,7.2
2023-05-14T16:27:56.698Z,9.5
2023-05-14T16:29:59.672Z,17.5
2023-05-14T16:34:05.717Z,6.4
2023-05-14T16:38:11.545Z,5.3
2023-05-14T16:42:20.578Z,7.3
2023-05-14T16:44:23.579Z,3
2023-05-14T16:48:55.730Z,7.3
2023-05-14T17:13:37.693Z,23.6
2023-05-14T17:15:40.674Z,10.2
2023-05-14T17:21:49.642Z,16.7
2023-05-14T17:30:04.703Z,18.4
2023-05-14T17:32:07.677Z,14.1
2023-05-14T17:34:10.684Z,9.4
2023-05-14T17:40:22.810Z,8.5
2023-05-14T17:43:28.832Z,13.2
2023-05-14T17:45:39.459Z,15.6
2023-05-14T17:47:34.894Z,15.5
2023-05-14T17:49:37.882Z,14.8
2023-05-14T17:51:44.033Z,17.9
2023-05-14T17:53:47.098Z,16.7
2023-05-14T17:55:50.032Z,15.3
2023-05-14T17:57:53.048Z,25.2
2023-05-14T17:59:56.085Z,11.6
2023-05-14T18:01:59.113Z,14
2023-05-14T18:04:02.216Z,17.2
2023-05-14T18:06:08.287Z,29.6
2023-05-14T18:08:11.294Z,17.2
2023-05-14T18:10:14.327Z,24
2023-05-14T18:12:17.344Z,22
2023-05-14T18:14:20.365Z,32.5
2023-05-14T18:16:23.427Z,13.6
2023-05-14T18:18:26.440Z,22.3
2023-05-14T18:20:33.484Z,20.1
2023-05-14T18:22:35.609Z,15.4
2023-05-14T18:24:38.631Z,11.2
2023-05-14T18:26:41.658Z,10.1
2023-05-14T18:28:44.712Z,38.3
2023-05-14T18:30:47.775Z,29.2
2023-05-14T18:32:50.792Z,18
2023-05-14T18:39:02.976Z,21.5
2023-05-14T18:40:06.051Z,13.5
2023-05-14T18:44:12.169Z,11.7
2023-05-14T18:46:15.224Z,12.8
2023-05-14T18:48:21.368Z,28.2
2023-05-14T18:50:24.404Z,16.5
2023-05-14T18:52:27.421Z,22.2
2023-05-14T18:56:33.536Z,25.1
2023-05-14T19:00:39.691Z,19.4
2023-05-14T19:08:56.538Z,10.5
2023-05-14T19:10:59.594Z,20.7
2023-05-14T19:13:02.612Z,14.8
2023-05-14T19:15:05.678Z,18.2
2023-05-14T19:17:11.827Z,19.1
2023-05-14T19:19:14.941Z,10.8
2023-05-14T19:21:17.964Z,15.3
2023-05-14T19:31:36.344Z,20.3
2023-05-14T19:35:42.467Z,11.3
2023-05-14T19:36:45.556Z,16.5
2023-05-14T19:45:00.909Z,24.2
2023-05-14T19:47:04.050Z,11.3
2023-05-14T19:49:07.048Z,40.4
2023-05-14T19:53:13.161Z,17
2023-05-14T19:55:16.230Z,20.9
2023-05-14T19:59:25.472Z,12
2023-05-14T20:01:28.520Z,12.7
2023-05-14T20:03:31.547Z,15
2023-05-14T20:05:34.610Z,17.8
2023-05-14T20:07:39.615Z,19
2023-05-14T20:09:40.728Z,27.3
2023-05-14T20:13:49.922Z,11.8
2023-05-14T20:15:52.983Z,29
2023-05-14T20:17:56.106Z,19.9
2023-05-14T20:19:59.117Z,20.8
2023-05-14T20:22:02.160Z,15.8
2023-05-14T20:24:05.230Z,24.6
2023-05-14T20:26:08.314Z,13.6
2023-05-14T20:28:14.450Z,13.1
2023-05-14T20:30:17.573Z,18.7
2023-05-14T20:32:20.582Z,20
2023-05-14T20:34:50.008Z,13.4
2023-05-14T20:36:53.050Z,22.8
2023-05-14T20:38:56.136Z,26.3
2023-05-14T20:41:02.317Z,28.4
2023-05-14T20:43:05.324Z,25.2
2023-05-14T20:45:08.443Z,34.4
2023-05-14T20:47:11.476Z,22
2023-05-14T20:49:14.515Z,30
2023-05-14T20:53:20.670Z,18.4
2023-05-14T20:55:27.160Z,20.6
2023-05-14T20:57:29.901Z,20.3
2023-05-14T20:59:32.963Z,23.3
2023-05-14T21:01:36.066Z,17.5
2023-05-14T21:03:39.314Z,22
2023-05-14T21:07:45.234Z,24.8
2023-05-14T21:16:00.713Z,37.1
2023-05-14T21:18:03.739Z,35.6
2023-05-14T21:20:06.758Z,22.7
2023-05-14T21:24:15.999Z,20.2
2023-05-14T21:26:19.064Z,23.1
2023-05-14T21:28:22.131Z,21.4
2023-05-14T21:33:31.336Z,32.4
2023-05-14T21:35:34.443Z,23
2023-05-14T21:37:40.593Z,33.8
2023-05-14T21:41:46.757Z,14.4
2023-05-14T21:45:52.882Z,38.1
2023-05-14T21:47:56.088Z,24.2
2023-05-14T21:49:59.004Z,29.5
2023-05-14T21:52:05.219Z,30.1
2023-05-14T21:54:08.295Z,20.3
2023-05-14T21:58:14.429Z,39.2
2023-05-14T22:00:17.510Z,35.2
2023-05-14T22:02:20.718Z,22.2
2023-05-14T22:04:23.634Z,25.8
2023-05-14T22:06:29.799Z,24.3
2023-05-14T22:08:32.886Z,21.6
2023-05-14T22:10:35.982Z,32.8
2023-05-14T22:16:45.290Z,24.9
2023-05-14T22:18:48.291Z,24.8
2023-05-14T22:20:54.419Z,18.7
2023-05-14T22:25:00.578Z,29.9
2023-05-14T22:26:03.645Z,24.5
2023-05-14T22:28:06.739Z,23.2
2023-05-14T22:32:12.842Z,29.9
2023-05-14T22:34:19.022Z,33.1
2023-05-14T22:36:22.075Z,24.2
2023-05-14T22:46:37.464Z,42.8
2023-05-14T22:48:43.565Z,23.6
2023-05-14T22:50:46.671Z,22
2023-05-14T22:52:49.691Z,41.5
2023-05-14T22:54:52.771Z,20
2023-05-14T22:56:55.842Z,23.8
2023-05-14T22:58:58.997Z,35.2
2023-05-14T23:01:02.065Z,30.4
2023-05-14T23:03:08.278Z,19.6
2023-05-14T23:07:14.359Z,28.3
2023-05-14T23:09:17.434Z,24.7
2023-05-14T23:11:20.489Z,27.5
2023-05-14T23:13:23.576Z,28.4
2023-05-14T23:17:33.172Z,31.4
2023-05-14T23:19:36.284Z,31.1
2023-05-14T23:21:39.362Z,29.6
2023-05-14T23:22:42.539Z,26.4
2023-05-14T23:24:45.587Z,25.6
2023-05-14T23:26:48.786Z,24.5
2023-05-14T23:28:51.928Z,25.3
2023-05-14T23:41:14.210Z,29
2023-05-14T23:45:23.619Z,24.4
2023-05-14T23:49:29.875Z,46.9
2023-05-14T23:51:32.998Z,30.1
2023-05-14T23:53:36.189Z,36.5
2023-05-14T23:55:39.318Z,26.4
2023-05-14T23:57:42.510Z,27.2
2023-05-14T23:59:48.810Z,22.3
